Marpla Meet

Organiza: Marpla Meet – Lugar: Predio del Aeroclub Mar del Plata

MarPla Meet Staff: 

Kevin Axel Nuñez (Kevax Fotografia) / Whatsapp: 2235659657
Christian Gomez (Christian Gomez Photography) / Whatsapp: 2235599800
Matías Juliano / Whatsapp: 2235656900  Fiami Garibotto
Lucas Martinez
Flor Nuñez
Maxi Alfonso (Max A. Photography)
Rama Altamirano (Fierros Bajitos Mdp)
Karen Yanina Bobba (Karen Yanina Fotografía)
Marina Sanchez (MS Fotos)

FOTOS DEL EXITOSO EVENTO EN EL PREDIO AEROCLUB MAR DEL PLATA 2017

Facebook Aeroclub Mar del Plata

Informe Climatico
MAR DEL PLATA AR
Metar
SAZM 142100Z 22012KT 180V250 9999 OVC012 13/10 Q1016

21:00 UTC

Wind: 220° 12kt

Visibility: 9999 m

Sky: OVC 1200 ft

Temp: 13 deg C / 55.4 deg F

Dewpoint: 10 deg C / 50 deg F

Pressure: 1016 hPa

TAF
TAF SAZM 141700Z 1418/1518 20010G20KT 7000 BR BKN005 OVC015 TX13/1510Z TN08/1510Z TEMPO 1421/1509 1000 DZBR OVC005 BECMG 1515/1518 16010KT 9999 BKN010 BKN030